Time;durP1;ratioP1;P1;durP2;ratioP2;P2;SDS_P1;SDS_P2;PMS_P1;PMS_P2;Temp;Humidity;BMP_temperature;BMP_pressure;BME280_temperature;BME280_humidity;BME280_pressure;Samples;Min_cycle;Max_cycle;Signal;HPM_P1;HPM_P2
2022/08/27 00:01:21;;;;;;;3.77;3.47;;;25.70;69.80;;;;;;4877166;29;20434;-73
2022/08/27 00:03:47;;;;;;;3.50;3.20;;;25.70;69.60;;;;;;4893973;29;20450;-73
2022/08/27 00:06:17;;;;;;;3.80;3.47;;;25.70;69.70;;;;;;4879536;29;20418;-73
2022/08/27 00:08:49;;;;;;;4.10;3.07;;;25.70;69.70;;;;;;4892912;29;20466;-73
2022/08/27 00:11:19;;;;;;;4.03;3.53;;;25.70;69.90;;;;;;4863001;29;20454;-73
2022/08/27 00:13:45;;;;;;;3.40;2.73;;;25.70;69.90;;;;;;4863163;29;20490;-73
2022/08/27 00:16:16;;;;;;;3.87;3.17;;;25.60;69.80;;;;;;4893750;29;20406;-73
2022/08/27 00:18:46;;;;;;;3.03;2.73;;;25.60;69.90;;;;;;4893807;29;20512;-73
2022/08/27 00:21:12;;;;;;;4.30;2.97;;;25.60;70.00;;;;;;4893386;29;20434;-73
2022/08/27 00:23:44;;;;;;;2.77;2.30;;;25.60;70.00;;;;;;4892742;29;20465;-73
2022/08/27 00:26:10;;;;;;;2.40;2.20;;;25.60;70.00;;;;;;4879236;29;20450;-73
2022/08/27 00:28:38;;;;;;;4.00;2.77;;;25.60;70.10;;;;;;4878077;29;20474;-73
2022/08/27 00:31:05;;;;;;;2.80;2.37;;;25.60;70.10;;;;;;4877968;29;20458;-73
2022/08/27 00:33:32;;;;;;;2.47;2.27;;;25.60;70.10;;;;;;4893584;29;20441;-73
2022/08/27 00:36:02;;;;;;;2.67;2.47;;;25.60;70.20;;;;;;4877896;29;20517;-73
2022/08/27 00:38:32;;;;;;;3.63;2.37;;;25.60;70.20;;;;;;4893093;29;20430;-73
2022/08/27 00:41:00;;;;;;;3.80;2.50;;;25.60;70.10;;;;;;4893638;29;20824;-73
2022/08/27 00:43:42;;;;;;;2.13;1.73;;;25.60;70.20;;;;;;4878231;29;20578;-73
2022/08/27 00:46:20;;;;;;;3.60;2.50;;;25.60;70.30;;;;;;4878966;29;20537;-74
2022/08/27 00:48:50;;;;;;;3.30;2.50;;;25.50;69.90;;;;;;4889721;29;20522;-73
2022/08/27 00:51:21;;;;;;;2.80;2.10;;;25.50;70.10;;;;;;4862327;29;20418;-72
2022/08/27 00:53:52;;;;;;;3.37;2.50;;;25.50;70.30;;;;;;4877739;29;20457;-73
2022/08/27 00:56:22;;;;;;;2.50;2.30;;;25.50;70.30;;;;;;4877948;29;20438;-73
2022/08/27 00:58:54;;;;;;;4.20;2.13;;;25.50;70.30;;;;;;4861856;29;20438;-73
2022/08/27 01:01:24;;;;;;;3.70;2.10;;;25.50;70.30;;;;;;4876864;29;20959;-73
2022/08/27 01:03:58;;;;;;;3.47;2.37;;;25.40;70.00;;;;;;4893191;29;20541;-73
2022/08/27 01:06:35;;;;;;;3.53;1.80;;;25.50;70.00;;;;;;4892745;29;20434;-73
2022/08/27 01:09:10;;;;;;;3.20;2.07;;;25.40;70.00;;;;;;4877321;29;20491;-73
2022/08/27 01:11:38;;;;;;;2.10;1.90;;;25.40;69.90;;;;;;4877403;29;20445;-73
2022/08/27 01:14:05;;;;;;;3.90;2.23;;;25.40;69.90;;;;;;4892451;29;20458;-73
2022/08/27 01:16:44;;;;;;;3.30;2.20;;;25.40;69.90;;;;;;4877617;29;20445;-73
2022/08/27 01:19:38;;;;;;;2.40;2.20;;;25.40;69.90;;;;;;4877953;29;20425;-73
2022/08/27 01:22:09;;;;;;;2.93;2.00;;;25.40;70.00;;;;;;4878201;29;20854;-73
2022/08/27 01:24:42;;;;;;;2.50;2.10;;;25.40;69.90;;;;;;4877286;29;20566;-73
2022/08/27 01:27:12;;;;;;;3.23;2.00;;;25.40;69.90;;;;;;4892839;29;20494;-73
2022/08/27 01:29:41;;;;;;;2.93;1.90;;;25.40;69.90;;;;;;4876751;29;20819;-73
2022/08/27 01:32:25;;;;;;;2.67;1.70;;;25.30;69.90;;;;;;4873936;29;20448;-73
2022/08/27 01:34:52;;;;;;;2.70;1.67;;;25.30;69.70;;;;;;4877484;29;20458;-73
2022/08/27 01:37:22;;;;;;;1.80;1.60;;;25.30;69.60;;;;;;4877886;29;20442;-73
2022/08/27 01:39:48;;;;;;;2.47;2.27;;;25.30;69.60;;;;;;4877587;29;20427;-73
2022/08/27 01:42:17;;;;;;;3.17;1.90;;;25.30;69.60;;;;;;4877203;29;20445;-73
2022/08/27 01:44:48;;;;;;;2.80;1.90;;;25.30;69.60;;;;;;4861623;29;20197;-73
2022/08/27 01:47:15;;;;;;;3.33;2.00;;;25.30;69.50;;;;;;4892498;29;20875;-73
2022/08/27 01:49:41;;;;;;;2.43;1.50;;;25.20;69.50;;;;;;4891891;29;20426;-73
2022/08/27 01:52:07;;;;;;;2.33;2.00;;;25.20;69.40;;;;;;4861774;29;20407;-73
2022/08/27 01:54:36;;;;;;;2.40;1.73;;;25.20;69.30;;;;;;4876971;29;20446;-73
2022/08/27 01:57:02;;;;;;;3.53;1.90;;;25.20;69.40;;;;;;4878158;29;20476;-73
2022/08/27 01:59:32;;;;;;;2.67;1.93;;;25.20;69.40;;;;;;4877539;29;20468;-73
2022/08/27 02:02:19;;;;;;;2.47;1.90;;;25.20;69.40;;;;;;4890562;29;20400;-73
2022/08/27 02:04:50;;;;;;;3.23;1.73;;;25.20;69.30;;;;;;4875870;29;20425;-73
2022/08/27 02:07:24;;;;;;;2.83;1.83;;;25.20;69.30;;;;;;4877509;29;20538;-70
2022/08/27 02:09:55;;;;;;;2.30;1.70;;;25.10;69.10;;;;;;4848584;29;20782;-73
2022/08/27 02:12:21;;;;;;;3.47;1.93;;;25.20;69.30;;;;;;4877997;29;20427;-73
2022/08/27 02:14:49;;;;;;;3.57;2.13;;;25.20;69.20;;;;;;4877866;29;20434;-73
2022/08/27 02:17:16;;;;;;;2.70;1.90;;;25.10;69.10;;;;;;4864111;29;20440;-73
2022/08/27 02:19:42;;;;;;;2.53;2.10;;;25.10;69.00;;;;;;4876631;29;20482;-73
2022/08/27 02:22:10;;;;;;;3.30;1.90;;;25.10;69.00;;;;;;4877931;29;20426;-73
2022/08/27 02:24:41;;;;;;;2.77;2.03;;;25.10;69.00;;;;;;4879745;29;20510;-73
2022/08/27 02:27:07;;;;;;;3.83;2.67;;;25.10;69.00;;;;;;4881561;29;20411;-73
2022/08/27 02:29:33;;;;;;;2.90;2.50;;;25.10;69.00;;;;;;4895508;29;21050;-73
2022/08/27 02:32:02;;;;;;;3.90;2.40;;;25.10;69.00;;;;;;4895840;29;20491;-73
2022/08/27 02:34:30;;;;;;;8.40;2.97;;;25.10;69.00;;;;;;4879940;29;20442;-73
2022/08/27 02:36:56;;;;;;;5.40;2.73;;;25.00;68.90;;;;;;4895558;29;20446;-72
2022/08/27 02:39:25;;;;;;;4.63;3.03;;;25.00;68.90;;;;;;4880106;29;20450;-73
2022/08/27 02:41:59;;;;;;;2.73;2.33;;;25.00;68.80;;;;;;4895346;29;20485;-73
2022/08/27 02:44:27;;;;;;;4.97;3.13;;;25.00;68.80;;;;;;4880065;29;20485;-73
2022/08/27 02:46:56;;;;;;;3.60;2.37;;;25.00;68.90;;;;;;4895368;29;20427;-73
2022/08/27 02:49:25;;;;;;;2.90;2.33;;;25.00;68.80;;;;;;4879564;29;20213;-73
2022/08/27 02:52:02;;;;;;;5.27;2.67;;;25.00;68.80;;;;;;4879875;29;20976;-73
2022/08/27 02:54:28;;;;;;;3.60;3.30;;;25.00;68.80;;;;;;4863585;29;20491;-74
2022/08/27 02:56:56;;;;;;;4.00;2.43;;;24.90;68.70;;;;;;4880465;29;20434;-73
2022/08/27 02:59:23;;;;;;;4.03;2.50;;;25.00;68.90;;;;;;4880430;29;20439;-74
2022/08/27 03:01:51;;;;;;;4.30;2.70;;;24.90;68.80;;;;;;4880544;29;20851;-74
2022/08/27 03:04:21;;;;;;;3.87;2.27;;;24.90;68.90;;;;;;4862157;29;20450;-73
2022/08/27 03:06:47;;;;;;;3.47;2.60;;;24.90;68.80;;;;;;4877869;29;20910;-74
2022/08/27 03:09:13;;;;;;;3.60;2.77;;;24.90;68.80;;;;;;4878822;29;20466;-74
2022/08/27 03:11:43;;;;;;;3.23;2.40;;;24.90;68.80;;;;;;4879371;29;20900;-73
2022/08/27 03:14:12;;;;;;;5.03;2.60;;;24.90;68.80;;;;;;4867561;29;20465;-73
2022/08/27 03:16:38;;;;;;;4.03;2.43;;;24.90;68.90;;;;;;4895035;29;20427;-73
2022/08/27 03:19:09;;;;;;;10.30;3.03;;;24.90;68.90;;;;;;4863312;29;20428;-73
2022/08/27 03:21:36;;;;;;;3.67;2.53;;;24.90;68.90;;;;;;4873701;29;20467;-74
2022/08/27 03:24:05;;;;;;;4.00;2.80;;;24.90;68.90;;;;;;4872321;29;21068;-73
2022/08/27 03:26:36;;;;;;;4.17;2.80;;;24.80;69.00;;;;;;4860613;29;20435;-73
2022/08/27 03:29:06;;;;;;;3.93;2.67;;;24.80;69.00;;;;;;4863676;29;20489;-74
2022/08/27 03:31:33;;;;;;;3.53;2.50;;;24.80;68.90;;;;;;4878861;29;20430;-73
2022/08/27 03:34:06;;;;;;;3.93;2.27;;;24.80;68.90;;;;;;4890598;29;20462;-74
2022/08/27 03:36:32;;;;;;;4.50;3.00;;;24.80;69.00;;;;;;4878454;29;20473;-74
2022/08/27 03:39:00;;;;;;;2.57;1.97;;;24.80;69.00;;;;;;4879079;29;20498;-74
2022/08/27 03:41:26;;;;;;;5.03;2.77;;;24.80;69.20;;;;;;4877635;29;20510;-73
2022/08/27 03:43:55;;;;;;;4.77;2.60;;;24.80;69.20;;;;;;4894241;29;20482;-73
2022/08/27 03:46:28;;;;;;;5.87;2.90;;;24.70;69.10;;;;;;4863318;29;20851;-74
2022/08/27 03:48:57;;;;;;;3.97;2.50;;;24.80;69.30;;;;;;4893216;29;20860;-73
2022/08/27 03:51:25;;;;;;;4.97;2.37;;;24.70;69.30;;;;;;4879592;29;20944;-73
2022/08/27 03:53:54;;;;;;;5.23;3.00;;;24.70;69.40;;;;;;4863001;29;20462;-73
2022/08/27 03:56:25;;;;;;;3.10;2.70;;;24.70;69.30;;;;;;4868357;29;20521;-73
2022/08/27 03:58:53;;;;;;;3.00;2.07;;;24.70;69.40;;;;;;4878020;29;20457;-74
2022/08/27 04:01:21;;;;;;;4.00;2.73;;;24.70;69.40;;;;;;4878315;29;20449;-74
2022/08/27 04:03:51;;;;;;;3.33;2.67;;;24.70;69.40;;;;;;4894242;29;20517;-73
2022/08/27 04:06:19;;;;;;;5.77;3.00;;;24.70;69.50;;;;;;4879529;29;20780;-73
2022/08/27 04:08:45;;;;;;;4.43;2.80;;;24.70;69.50;;;;;;4878570;29;20469;-73
2022/08/27 04:11:11;;;;;;;4.20;2.77;;;24.70;69.50;;;;;;4871763;29;20786;-73
2022/08/27 04:13:37;;;;;;;4.27;2.87;;;24.70;69.50;;;;;;4878082;29;20669;-74
2022/08/27 04:16:09;;;;;;;6.97;2.80;;;24.60;69.30;;;;;;4877887;29;20438;-73
2022/08/27 04:18:35;;;;;;;4.10;2.40;;;24.60;69.30;;;;;;4862875;29;20473;-73
2022/08/27 04:21:10;;;;;;;3.27;2.20;;;24.60;69.30;;;;;;4877597;29;20446;-73
2022/08/27 04:23:37;;;;;;;3.60;2.37;;;24.60;69.30;;;;;;4877872;29;20446;-73
2022/08/27 04:26:05;;;;;;;3.20;2.90;;;24.60;69.30;;;;;;4877080;29;20449;-74
2022/08/27 04:28:38;;;;;;;3.40;2.70;;;24.60;69.30;;;;;;4879041;29;20446;-73
2022/08/27 04:31:06;;;;;;;4.90;3.33;;;24.60;69.20;;;;;;4877630;29;20433;-74
2022/08/27 04:33:37;;;;;;;3.17;2.23;;;24.60;69.20;;;;;;4893448;29;20443;-73
2022/08/27 04:36:28;;;;;;;4.83;2.60;;;24.60;69.30;;;;;;4850046;29;20798;-73
2022/08/27 04:38:57;;;;;;;6.90;2.33;;;24.50;69.00;;;;;;4877615;29;20772;-73
2022/08/27 04:41:25;;;;;;;3.67;2.37;;;24.50;69.10;;;;;;4877119;29;20466;-73
2022/08/27 04:44:03;;;;;;;3.07;2.50;;;24.50;69.10;;;;;;4892693;29;20474;-73
2022/08/27 04:46:32;;;;;;;4.80;2.47;;;24.50;69.10;;;;;;4883254;29;20491;-73
2022/08/27 04:49:00;;;;;;;3.80;2.47;;;24.50;69.00;;;;;;4877234;29;21024;-74
2022/08/27 04:51:27;;;;;;;2.53;2.07;;;24.50;69.00;;;;;;4877349;29;20419;-73
2022/08/27 04:53:55;;;;;;;4.37;2.37;;;24.50;69.00;;;;;;4877526;29;20454;-73
2022/08/27 04:56:25;;;;;;;7.27;2.40;;;24.50;68.90;;;;;;4877677;29;20466;-73
2022/08/27 04:58:54;;;;;;;3.47;2.33;;;24.50;68.90;;;;;;4877119;29;20427;-74
2022/08/27 05:01:25;;;;;;;3.97;2.50;;;24.50;68.90;;;;;;4878439;29;20792;-73
2022/08/27 05:03:52;;;;;;;4.70;2.73;;;24.40;68.80;;;;;;4878216;29;20525;-74
2022/08/27 05:06:21;;;;;;;4.23;2.07;;;24.40;68.70;;;;;;4862151;29;20790;-73
2022/08/27 05:09:20;;;;;;;3.93;2.20;;;24.40;68.80;;;;;;4894080;29;20482;-73
2022/08/27 05:11:52;;;;;;;2.60;2.40;;;24.40;68.80;;;;;;4879168;29;20436;-74
2022/08/27 05:14:19;;;;;;;4.93;2.07;;;24.40;68.80;;;;;;4881700;29;20941;-73
2022/08/27 05:16:52;;;;;;;5.13;2.90;;;24.40;68.80;;;;;;4876397;29;20517;-73
2022/08/27 05:19:19;;;;;;;4.00;2.60;;;24.40;68.80;;;;;;4876832;29;20427;-73
2022/08/27 05:21:49;;;;;;;3.90;2.30;;;24.40;68.80;;;;;;4892840;29;20426;-73
2022/08/27 05:24:36;;;;;;;3.20;2.40;;;24.40;68.80;;;;;;4874523;29;20475;-73
2022/08/27 05:27:03;;;;;;;2.53;2.30;;;24.40;68.80;;;;;;4879931;29;20441;-77
2022/08/27 05:29:33;;;;;;;4.43;2.67;;;24.30;68.70;;;;;;4878659;29;20991;-78
2022/08/27 05:31:59;;;;;;;6.93;2.70;;;24.30;68.70;;;;;;4878484;29;20543;-77
2022/08/27 05:34:29;;;;;;;4.53;2.50;;;24.30;68.70;;;;;;4879556;29;21003;-77
2022/08/27 05:36:55;;;;;;;3.83;2.33;;;24.30;68.70;;;;;;4892269;29;21011;-78
2022/08/27 05:39:24;;;;;;;2.90;2.20;;;24.30;68.70;;;;;;4877994;29;20426;-78
2022/08/27 05:41:52;;;;;;;3.37;2.50;;;24.30;68.60;;;;;;4878786;29;20441;-76
2022/08/27 05:44:25;;;;;;;3.63;2.60;;;24.30;68.70;;;;;;4896505;29;20252;-78
2022/08/27 05:46:51;;;;;;;5.23;2.23;;;24.30;68.60;;;;;;4880375;29;20426;-77
2022/08/27 05:49:17;;;;;;;3.13;2.17;;;24.30;68.70;;;;;;4891181;29;20553;-78
2022/08/27 05:51:45;;;;;;;4.87;2.40;;;24.20;68.60;;;;;;4875009;29;20462;-78
2022/08/27 05:54:18;;;;;;;3.90;2.73;;;24.20;68.50;;;;;;4891860;29;20485;-78
2022/08/27 05:56:50;;;;;;;3.90;2.60;;;24.20;68.50;;;;;;4876766;29;20419;-78
2022/08/27 06:02:13;;;;;;;3.33;2.40;;;24.20;68.60;;;;;;4881015;29;20465;-78
2022/08/27 06:04:39;;;;;;;4.93;2.60;;;24.20;68.50;;;;;;4877829;29;20523;-78
2022/08/27 06:07:08;;;;;;;4.37;2.90;;;24.20;68.50;;;;;;4867639;29;20434;-79
2022/08/27 06:09:36;;;;;;;2.47;2.27;;;24.20;68.60;;;;;;4873164;29;20435;-77
2022/08/27 06:12:06;;;;;;;5.23;2.60;;;24.20;68.50;;;;;;4864485;29;20436;-78
2022/08/27 06:14:36;;;;;;;3.17;2.40;;;24.20;68.50;;;;;;4880311;29;20537;-76
2022/08/27 06:17:03;;;;;;;2.10;1.90;;;24.20;68.50;;;;;;4864868;29;20451;-77
2022/08/27 06:19:35;;;;;;;4.23;2.50;;;24.20;68.50;;;;;;4881590;29;20473;-77
2022/08/27 06:22:06;;;;;;;5.47;2.80;;;24.10;68.40;;;;;;4880508;29;20440;-77
2022/08/27 06:24:32;;;;;;;4.73;2.47;;;24.10;68.40;;;;;;4881300;29;20438;-78
2022/08/27 06:26:58;;;;;;;5.40;2.53;;;24.10;68.40;;;;;;4880449;29;20478;-78
2022/08/27 06:29:27;;;;;;;3.43;2.27;;;24.10;68.40;;;;;;4880192;29;20419;-76
2022/08/27 06:31:55;;;;;;;3.23;2.20;;;24.10;68.40;;;;;;4880028;29;20453;-76
2022/08/27 06:34:25;;;;;;;2.97;2.40;;;24.10;68.40;;;;;;4880943;29;20824;-77
2022/08/27 06:36:56;;;;;;;3.47;2.43;;;24.10;68.40;;;;;;4878604;29;20448;-77
2022/08/27 06:39:25;;;;;;;2.67;2.10;;;24.10;68.40;;;;;;4861070;29;20460;-79
2022/08/27 06:41:53;;;;;;;4.10;2.67;;;24.10;68.40;;;;;;4880971;29;20469;-77
2022/08/27 06:44:24;;;;;;;3.93;2.10;;;24.10;68.40;;;;;;4879748;29;20472;-78
2022/08/27 06:47:09;;;;;;;2.67;2.43;;;24.10;68.40;;;;;;4880042;29;20410;-77
2022/08/27 06:49:40;;;;;;;2.67;2.10;;;24.10;68.40;;;;;;4880954;29;20410;-77
2022/08/27 06:52:11;;;;;;;4.30;2.27;;;24.00;68.20;;;;;;4877727;29;20450;-78
2022/08/27 06:54:40;;;;;;;3.07;2.00;;;24.10;68.40;;;;;;4862729;29;20455;-78
2022/08/27 06:57:08;;;;;;;2.70;2.50;;;24.00;68.30;;;;;;4880736;29;20963;-77
2022/08/27 06:59:34;;;;;;;5.33;2.80;;;24.00;68.30;;;;;;4879237;29;20438;-77
2022/08/27 07:02:03;;;;;;;2.80;2.10;;;24.00;68.30;;;;;;4879290;29;20460;-78
2022/08/27 07:04:29;;;;;;;4.07;2.50;;;24.00;68.20;;;;;;4879379;29;20445;-79
2022/08/27 07:06:55;;;;;;;5.23;2.77;;;24.00;68.20;;;;;;4878732;29;20451;-76
2022/08/27 07:09:23;;;;;;;3.03;2.20;;;24.00;68.20;;;;;;4876011;29;20495;-77
2022/08/27 07:11:54;;;;;;;4.87;2.67;;;24.00;68.20;;;;;;4878194;29;20481;-76
2022/08/27 07:14:22;;;;;;;4.80;2.33;;;24.00;68.20;;;;;;4877517;29;20442;-77
2022/08/27 07:16:56;;;;;;;4.40;2.70;;;24.00;68.20;;;;;;4876937;29;20427;-77
2022/08/27 07:19:24;;;;;;;4.40;2.40;;;24.00;68.20;;;;;;4878700;29;20506;-76
2022/08/27 07:21:50;;;;;;;3.60;2.40;;;24.00;68.20;;;;;;4876718;29;20509;-76
2022/08/27 07:24:19;;;;;;;3.20;1.97;;;24.00;68.20;;;;;;4892042;29;20534;-76
2022/08/27 07:26:47;;;;;;;3.20;2.00;;;24.00;68.20;;;;;;4861312;29;20969;-77
2022/08/27 07:29:15;;;;;;;5.60;2.37;;;24.00;68.20;;;;;;4866776;29;20462;-76
2022/08/27 07:31:48;;;;;;;3.10;2.03;;;24.00;68.20;;;;;;4878062;29;20486;-77
2022/08/27 07:34:17;;;;;;;3.20;2.53;;;24.00;68.20;;;;;;4878103;29;20455;-77
2022/08/27 07:36:45;;;;;;;3.67;1.90;;;24.00;68.20;;;;;;4876682;29;20471;-77
2022/08/27 07:39:12;;;;;;;5.10;2.20;;;24.00;68.20;;;;;;4876673;29;20418;-76
2022/08/27 07:44:44;;;;;;;2.80;2.00;;;24.00;68.20;;;;;;4876794;29;20917;-76
2022/08/27 07:47:10;;;;;;;3.23;2.50;;;23.90;68.00;;;;;;4860709;29;20422;-77
2022/08/27 07:49:39;;;;;;;4.07;2.70;;;24.00;68.10;;;;;;4875175;29;20435;-76
2022/08/27 07:52:05;;;;;;;2.87;2.47;;;23.90;68.00;;;;;;4875843;29;20426;-76
2022/08/27 07:54:31;;;;;;;3.03;2.23;;;23.90;68.10;;;;;;4876351;29;20473;-77
2022/08/27 07:56:59;;;;;;;3.10;2.10;;;23.90;68.10;;;;;;4877796;29;20437;-77
2022/08/27 07:59:26;;;;;;;3.03;2.57;;;23.90;68.00;;;;;;4888658;29;20453;-77
2022/08/27 08:01:55;;;;;;;2.30;2.10;;;23.90;68.00;;;;;;4861303;29;20977;-77
2022/08/27 08:04:26;;;;;;;2.90;2.10;;;23.90;68.00;;;;;;4877476;29;20457;-76
2022/08/27 08:06:54;;;;;;;3.67;2.23;;;23.90;68.00;;;;;;4877326;29;20919;-76
2022/08/27 08:09:22;;;;;;;4.53;2.53;;;23.90;68.00;;;;;;4863225;29;20989;-76
2022/08/27 08:11:49;;;;;;;2.77;2.17;;;23.90;68.00;;;;;;4870164;29;20527;-76
2022/08/27 08:14:18;;;;;;;3.90;2.07;;;23.90;68.00;;;;;;4862282;29;20443;-76
2022/08/27 08:16:47;;;;;;;3.90;2.40;;;23.90;68.00;;;;;;4878247;29;20427;-76
2022/08/27 08:19:13;;;;;;;2.83;2.10;;;23.90;68.10;;;;;;4877824;29;20416;-76
2022/08/27 08:21:44;;;;;;;5.07;2.43;;;23.90;68.10;;;;;;4877416;29;20430;-76
2022/08/27 08:24:38;;;;;;;2.70;2.10;;;23.90;68.10;;;;;;4865294;29;20455;-76
2022/08/27 08:27:06;;;;;;;4.37;2.17;;;23.90;68.10;;;;;;4874358;29;20447;-76
2022/08/27 08:29:36;;;;;;;3.90;2.63;;;23.90;68.10;;;;;;4861945;29;20451;-76
2022/08/27 08:32:04;;;;;;;4.50;2.30;;;23.90;68.10;;;;;;4877456;29;20517;-75
2022/08/27 08:34:52;;;;;;;2.63;2.30;;;23.90;68.10;;;;;;4877383;29;20427;-76
2022/08/27 08:37:21;;;;;;;2.47;2.00;;;23.90;68.10;;;;;;4878136;29;20502;-76
2022/08/27 08:39:46;;;;;;;3.83;2.60;;;23.90;68.10;;;;;;4863294;29;20441;-76
2022/08/27 08:42:40;;;;;;;2.90;2.00;;;23.90;68.10;;;;;;4863370;29;20493;-76
2022/08/27 08:45:10;;;;;;;2.30;2.10;;;23.90;68.10;;;;;;4878334;29;20447;-77
2022/08/27 08:48:09;;;;;;;4.97;2.10;;;23.90;68.10;;;;;;4863423;29;20522;-78
2022/08/27 08:51:16;;;;;;;2.30;2.00;;;23.90;68.10;;;;;;4878381;29;20819;-75
2022/08/27 08:53:56;;;;;;;3.10;2.70;;;23.90;68.00;;;;;;4870466;29;20521;-74
2022/08/27 08:56:50;;;;;;;5.07;2.13;;;23.90;68.00;;;;;;4879867;29;20984;-75
2022/08/27 08:59:19;;;;;;;2.77;2.30;;;23.90;68.00;;;;;;4878118;29;20473;-75
2022/08/27 09:01:47;;;;;;;3.30;2.20;;;23.80;68.00;;;;;;4847945;29;20474;-74
2022/08/27 09:04:13;;;;;;;3.77;2.33;;;23.90;68.00;;;;;;4862585;29;20464;-76
2022/08/27 09:06:57;;;;;;;3.30;2.33;;;23.80;67.90;;;;;;4878617;29;20422;-73
2022/08/27 09:09:52;;;;;;;3.50;2.27;;;23.90;68.00;;;;;;4858590;29;20470;-70
2022/08/27 09:12:29;;;;;;;2.30;1.83;;;23.90;68.10;;;;;;4863109;29;21122;-73
2022/08/27 09:15:11;;;;;;;2.13;1.90;;;23.90;68.00;;;;;;4875264;29;20430;-77
2022/08/27 09:17:40;;;;;;;2.17;1.67;;;23.80;67.80;;;;;;4866139;29;20509;-77
2022/08/27 09:20:09;;;;;;;2.90;1.90;;;23.90;68.00;;;;;;4892518;29;20442;-76
2022/08/27 09:23:01;;;;;;;2.60;1.83;;;23.90;68.00;;;;;;4878890;29;20482;-76
2022/08/27 09:25:39;;;;;;;2.00;1.70;;;23.90;68.00;;;;;;4879544;29;20415;-75
2022/08/27 09:29:14;;;;;;;5.10;2.00;;;23.90;68.00;;;;;;4878430;29;20459;-76
2022/08/27 09:31:07;;;;;;;2.83;2.30;;;23.90;68.00;;;;;;4877140;29;20505;-74
2022/08/27 09:33:33;;;;;;;3.37;2.33;;;23.90;68.00;;;;;;4877316;29;20464;-76
2022/08/27 09:36:08;;;;;;;2.30;2.10;;;23.90;68.00;;;;;;4876788;29;20921;-73
2022/08/27 09:38:51;;;;;;;3.00;1.80;;;23.90;67.90;;;;;;4877241;29;20486;-74
2022/08/27 09:41:24;;;;;;;3.43;1.77;;;23.90;67.90;;;;;;4877071;29;20466;-76
2022/08/27 09:44:09;;;;;;;4.03;2.53;;;23.90;67.90;;;;;;4861356;29;20510;-75
2022/08/27 09:46:35;;;;;;;3.63;1.90;;;23.90;67.90;;;;;;4877075;29;20432;-75
2022/08/27 09:49:13;;;;;;;2.80;2.00;;;23.90;67.80;;;;;;4892101;29;20621;-76
2022/08/27 09:51:44;;;;;;;5.23;2.33;;;23.90;67.80;;;;;;4877081;29;20737;-76
2022/08/27 09:54:31;;;;;;;5.03;2.60;;;23.90;67.80;;;;;;4891750;29;20482;-75
2022/08/27 09:56:58;;;;;;;2.03;1.83;;;23.90;67.80;;;;;;4877208;29;20434;-76
2022/08/27 09:59:36;;;;;;;2.60;1.97;;;23.90;67.80;;;;;;4877721;29;20455;-75
2022/08/27 10:02:16;;;;;;;4.23;2.27;;;23.90;67.70;;;;;;4876573;29;20526;-75
2022/08/27 10:04:51;;;;;;;4.23;2.10;;;23.90;67.60;;;;;;4889058;29;20427;-75
2022/08/27 10:07:42;;;;;;;4.23;2.00;;;23.90;67.70;;;;;;4876086;29;20530;-76
2022/08/27 10:10:09;;;;;;;2.77;2.13;;;23.90;67.70;;;;;;4866829;29;20432;-75
2022/08/27 10:13:03;;;;;;;3.00;1.97;;;23.90;67.70;;;;;;4871242;29;20987;-74
2022/08/27 10:15:43;;;;;;;2.90;2.00;;;23.90;67.70;;;;;;4876362;29;20530;-75
2022/08/27 10:18:18;;;;;;;2.93;2.00;;;23.90;67.60;;;;;;4860349;29;21035;-77
2022/08/27 10:20:50;;;;;;;4.03;2.33;;;23.90;67.50;;;;;;4878756;29;20518;-76
2022/08/27 10:23:19;;;;;;;1.90;1.60;;;23.90;67.50;;;;;;4874846;29;20466;-76
2022/08/27 10:25:45;;;;;;;3.37;2.10;;;23.90;67.40;;;;;;4874670;29;20502;-77
2022/08/27 10:28:41;;;;;;;5.40;2.10;;;23.90;67.40;;;;;;4873131;29;20466;-76
2022/08/27 10:31:32;;;;;;;3.10;2.50;;;23.90;67.40;;;;;;4871613;29;20442;-75
2022/08/27 10:34:46;;;;;;;2.73;1.73;;;23.90;67.30;;;;;;4876734;29;20457;-76
2022/08/27 10:37:56;;;;;;;3.90;1.80;;;23.90;67.30;;;;;;4889341;29;20438;-75
2022/08/27 10:40:36;;;;;;;2.57;1.90;;;23.90;68.10;;;;;;4877197;29;20442;-74
2022/08/27 10:43:36;;;;;;;2.83;2.10;;;23.90;67.30;;;;;;4876691;29;20466;-74
2022/08/27 10:46:41;;;;;;;3.10;1.83;;;23.90;67.30;;;;;;4877764;29;20431;-75
2022/08/27 10:49:30;;;;;;;4.20;2.20;;;23.90;67.20;;;;;;4879231;29;20489;-76
2022/08/27 10:52:01;;;;;;;2.60;1.63;;;23.90;67.20;;;;;;4897379;29;20494;-77
2022/08/27 10:54:37;;;;;;;2.60;1.83;;;23.90;67.10;;;;;;4878236;29;20471;-74
2022/08/27 10:57:21;;;;;;;3.93;1.93;;;24.00;67.30;;;;;;4878509;29;20422;-76
2022/08/27 11:00:16;;;;;;;2.97;2.17;;;24.00;67.20;;;;;;4879946;29;21056;-76
2022/08/27 11:03:03;;;;;;;4.27;2.00;;;24.00;67.10;;;;;;4927027;23;20498;-72
2022/08/27 11:05:38;;;;;;;3.20;1.80;;;24.00;67.10;;;;;;4878576;29;20525;-72
2022/08/27 11:08:30;;;;;;;3.47;1.97;;;24.00;67.10;;;;;;4864591;29;20459;-72
2022/08/27 11:11:11;;;;;;;3.97;2.20;;;24.00;67.10;;;;;;4876991;29;20489;-75
2022/08/27 11:13:45;;;;;;;2.70;2.00;;;24.00;67.10;;;;;;4860711;29;20579;-71
2022/08/27 11:16:24;;;;;;;5.10;2.40;;;24.00;67.00;;;;;;4871624;29;20944;-71
2022/08/27 11:18:57;;;;;;;2.90;1.80;;;24.00;67.00;;;;;;4861527;29;20451;-71
2022/08/27 11:21:58;;;;;;;3.83;2.13;;;24.00;66.90;;;;;;4861129;29;20416;-71
2022/08/27 11:24:40;;;;;;;3.13;2.37;;;24.00;66.90;;;;;;4892289;29;20454;-71
2022/08/27 11:27:09;;;;;;;3.27;2.30;;;24.00;66.90;;;;;;4866451;29;20546;-71
2022/08/27 11:30:09;;;;;;;3.90;2.00;;;24.00;66.80;;;;;;4867014;29;20466;-71
2022/08/27 11:33:23;;;;;;;5.70;2.63;;;24.10;66.90;;;;;;4878953;29;20455;-71
2022/08/27 11:36:07;;;;;;;4.43;2.20;;;24.10;66.90;;;;;;4891914;29;20476;-72
2022/08/27 11:38:53;;;;;;;3.13;2.40;;;24.10;66.80;;;;;;4870853;29;20451;-71
2022/08/27 11:41:49;;;;;;;2.50;2.00;;;24.10;66.70;;;;;;4856614;29;20474;-72
2022/08/27 11:44:21;;;;;;;3.10;2.50;;;24.10;66.80;;;;;;4866155;29;20552;-71
2022/08/27 11:47:06;;;;;;;2.30;1.90;;;24.10;66.70;;;;;;4863125;29;21014;-71
2022/08/27 11:49:49;;;;;;;2.27;1.80;;;24.10;66.70;;;;;;4862125;29;20466;-71
2022/08/27 11:52:31;;;;;;;2.30;2.10;;;24.10;66.70;;;;;;4861665;29;20432;-69
2022/08/27 11:55:23;;;;;;;2.90;2.33;;;24.10;66.60;;;;;;4875589;29;20874;-71
2022/08/27 11:58:16;;;;;;;2.80;2.10;;;24.10;66.60;;;;;;4861611;29;20923;-72
2022/08/27 12:00:52;;;;;;;3.00;2.50;;;24.10;66.50;;;;;;4891930;29;20545;-71
2022/08/27 12:03:20;;;;;;;3.60;2.30;;;24.10;66.50;;;;;;4881533;29;20477;-72
2022/08/27 12:06:10;;;;;;;3.20;2.40;;;24.10;66.50;;;;;;4878455;29;20589;-72
2022/08/27 12:08:39;;;;;;;4.50;2.43;;;24.10;66.40;;;;;;4875861;29;20477;-72
2022/08/27 12:11:10;;;;;;;5.63;2.40;;;24.10;66.70;;;;;;4886872;29;20436;-72
2022/08/27 12:13:55;;;;;;;4.83;2.30;;;24.10;66.40;;;;;;4864644;29;20464;-77
2022/08/27 12:16:41;;;;;;;7.60;2.47;;;24.10;66.40;;;;;;4865383;29;20428;-77
2022/08/27 12:19:38;;;;;;;2.70;2.50;;;24.20;66.50;;;;;;4880056;29;20800;-76
2022/08/27 12:22:14;;;;;;;4.90;2.83;;;24.20;66.40;;;;;;4895832;29;20537;-75
2022/08/27 12:24:42;;;;;;;4.63;2.97;;;24.20;66.40;;;;;;4880420;29;20413;-76
2022/08/27 12:27:30;;;;;;;2.50;2.10;;;24.20;66.40;;;;;;4878927;29;20407;-75
2022/08/27 12:30:26;;;;;;;6.23;2.60;;;24.20;66.40;;;;;;4865080;29;20424;-77
2022/08/27 12:32:53;;;;;;;5.60;2.90;;;24.20;66.20;;;;;;4861588;29;20440;-77
2022/08/27 12:35:25;;;;;;;3.93;2.47;;;24.20;66.30;;;;;;4860515;29;20416;-77
2022/08/27 12:37:53;;;;;;;4.23;2.67;;;24.20;66.20;;;;;;4860268;29;20806;-76
2022/08/27 12:40:26;;;;;;;3.50;2.37;;;24.20;66.20;;;;;;4862399;29;20419;-78
2022/08/27 12:43:06;;;;;;;3.23;2.27;;;24.20;66.10;;;;;;4876361;29;20454;-77
2022/08/27 12:45:37;;;;;;;5.07;2.93;;;24.20;66.10;;;;;;4893892;29;20485;-76
2022/08/27 12:48:10;;;;;;;3.80;2.20;;;24.20;66.10;;;;;;4878812;29;20476;-74
2022/08/27 12:50:39;;;;;;;4.40;2.47;;;24.20;66.00;;;;;;4879162;29;20431;-75
2022/08/27 12:53:19;;;;;;;3.23;2.43;;;24.30;66.10;;;;;;4878717;29;20455;-77
2022/08/27 12:56:25;;;;;;;2.63;2.43;;;24.30;66.10;;;;;;4878934;29;20438;-77
2022/08/27 12:59:12;;;;;;;3.90;2.27;;;24.30;66.10;;;;;;4879794;29;20410;-77
2022/08/27 13:02:05;;;;;;;3.23;2.90;;;24.30;66.00;;;;;;4878476;29;20897;-77
2022/08/27 13:04:37;;;;;;;4.63;2.80;;;24.30;66.00;;;;;;4879697;29;20485;-77
2022/08/27 13:07:06;;;;;;;3.03;2.47;;;24.30;66.00;;;;;;4877877;29;20443;-77
2022/08/27 13:09:35;;;;;;;5.33;3.10;;;24.30;65.90;;;;;;4879235;29;20446;-77
2022/08/27 13:12:15;;;;;;;4.60;2.93;;;24.30;65.90;;;;;;4879448;29;20419;-77
2022/08/27 13:14:41;;;;;;;5.30;2.93;;;24.30;66.00;;;;;;4878534;29;20497;-76
2022/08/27 13:17:18;;;;;;;4.40;2.80;;;24.30;65.90;;;;;;4863127;29;20410;-76
2022/08/27 13:19:51;;;;;;;3.30;2.73;;;24.30;65.90;;;;;;4878346;29;21102;-75
2022/08/27 13:22:44;;;;;;;2.87;2.63;;;24.40;66.00;;;;;;4877826;29;20894;-73
2022/08/27 13:25:38;;;;;;;3.43;2.50;;;24.40;65.90;;;;;;4878610;29;20439;-73
2022/08/27 13:28:13;;;;;;;4.00;2.77;;;24.40;65.80;;;;;;4868907;29;21263;-73